^^
Station Historical Data
Daily Summary for May 16, 2018 Units:  English    Metric   Both
« Previous Day
Next Day »
Daily Weekly Monthly Yearly Custom
  High: Low: Average:
Temperature: TemperatureF °F 62.2 °F 64.8 °F
Dew Point: DewpointF °F 61.7 °F 63.7 °F
Humidity: Humidity% 84% 96%
Wind Speed: WindSpeedMPHmph 0.0mph 0.1mph
Wind Gust: WindSpeedGustMPHmph - -
Wind- - WSW
Pressure: PressureIn in 30.25 in -
Precipitation: 1.61 in    
Historical Graphs
 
 
Tabular Data for May 16, 2018
Time Temperature Dew Point Pressure Wind Wind Speed Wind Gust Humidity Rainfall Rate (Hourly)
TemperatureF °F DewpointF °F PressureIn in Calm     Humidity% HourlyPrecipIn in
00:07 63.5 °F 63.0 °F 30.34 in Calm     98% 0.00 in
00:12 63.7 °F 63.1 °F 30.34 in Calm     98% 0.00 in
00:17 63.5 °F 63.0 °F 30.34 in Calm     98% 0.00 in
00:23 63.5 °F 63.0 °F 30.34 in Calm     98% 0.00 in
00:28 63.3 °F 62.8 °F 30.34 in Calm     98% 0.00 in
00:33 63.3 °F 62.8 °F 30.34 in Calm     98% 0.00 in
00:38 63.3 °F 62.8 °F 30.33 in Calm   1.0 mph 98% 0.00 in
00:43 63.1 °F 62.6 °F 30.33 in Calm     98% 0.00 in
00:48 63.1 °F 62.6 °F 30.33 in Calm     98% 0.00 in
00:53 63.0 °F 62.4 °F 30.33 in Calm   1.0 mph 98% 0.00 in
00:58 63.1 °F 62.6 °F 30.33 in Calm     98% 0.00 in
01:03 63.1 °F 62.6 °F 30.32 in Calm     98% 0.00 in
01:08 63.1 °F 62.6 °F 30.33 in Calm     98% 0.00 in
01:13 63.1 °F 62.6 °F 30.33 in Calm   1.0 mph 98% 0.00 in
01:33 63.1 °F 62.6 °F 30.32 in Calm     98% 0.00 in
01:43 63.0 °F 62.4 °F 30.32 in Calm     98% 0.00 in
01:58 62.8 °F 62.2 °F 30.31 in Calm     98% 0.01 in
02:13 62.4 °F 61.9 °F 30.30 in Calm     98% 0.01 in
02:18 62.4 °F 61.9 °F 30.30 in Calm     98% 0.01 in
02:23 62.4 °F 61.9 °F 30.30 in Calm     98% 0.01 in
02:33 62.4 °F 61.9 °F 30.30 in WNW 0.9 mph 1.0 mph 98% 0.01 in
02:48 62.6 °F 62.2 °F 30.29 in Calm     99% 0.02 in
03:03 62.6 °F 62.1 °F 30.29 in Calm   1.0 mph 98% 0.03 in
03:13 62.8 °F 62.2 °F 30.29 in Calm   1.0 mph 98% 0.04 in
03:23 62.8 °F 62.2 °F 30.29 in Calm     98% 0.06 in
03:28 62.8 °F 62.2 °F 30.29 in Calm     98% 0.07 in
03:33 62.8 °F 62.2 °F 30.29 in Calm     98% 0.08 in
03:38 62.4 °F 61.9 °F 30.29 in Calm     98% 0.09 in
03:43 62.4 °F 61.9 °F 30.29 in Calm     98% 0.11 in
03:58 62.2 °F 61.7 °F 30.28 in Calm     98% 0.15 in
04:03 62.2 °F 61.7 °F 30.28 in Calm     98% 0.15 in
04:08 62.2 °F 61.7 °F 30.28 in Calm     98% 0.14 in
04:13 62.2 °F 61.7 °F 30.28 in Calm     98% 0.15 in
04:18 62.2 °F 61.9 °F 30.28 in Calm     99% 0.15 in
04:33 62.2 °F 61.9 °F 30.28 in Calm     99% 0.17 in
04:38 62.2 °F 61.9 °F 30.28 in Calm     99% 0.18 in
04:43 62.2 °F 61.9 °F 30.28 in Calm     99% 0.17 in
04:48 62.2 °F 61.9 °F 30.29 in Calm     99% 0.17 in
04:53 62.4 °F 62.1 °F 30.29 in Calm   1.0 mph 99% 0.18 in
04:58 62.4 °F 62.1 °F 30.29 in Calm     99% 0.19 in
05:03 62.4 °F 62.1 °F 30.29 in Calm   1.0 mph 99% 0.20 in
05:13 62.2 °F 61.9 °F 30.29 in Calm   1.0 mph 99% 0.25 in
05:18 62.4 °F 62.1 °F 30.29 in Calm     99% 0.26 in
05:23 62.2 °F 61.9 °F 30.29 in Calm   1.0 mph 99% 0.28 in
05:28 62.4 °F 62.1 °F 30.29 in Calm     99% 0.28 in
05:33 62.4 °F 62.1 °F 30.29 in Calm     99% 0.29 in
05:38 62.4 °F 62.1 °F 30.29 in Calm     99% 0.30 in
05:53 62.4 °F 62.1 °F 30.29 in Calm     99% 0.30 in
05:58 62.4 °F 62.1 °F 30.29 in Calm     99% 0.30 in
06:03 62.2 °F 61.9 °F 30.29 in Calm     99% 0.29 in
06:08 62.2 °F 61.9 °F 30.29 in Calm     99% 0.27 in
06:18 62.4 °F 62.1 °F 30.29 in Calm     99% 0.24 in
06:28 62.4 °F 62.1 °F 30.29 in Calm     99% 0.20 in
06:38 62.4 °F 62.1 °F 30.29 in Calm     99% 0.15 in
06:48 62.4 °F 62.1 °F 30.29 in Calm     99% 0.14 in
06:58 62.4 °F 62.1 °F 30.29 in Calm     99% 0.11 in
07:08 62.4 °F 62.1 °F 30.30 in Calm     99% 0.10 in
07:18 62.6 °F 62.2 °F 30.30 in Calm     99% 0.13 in
07:28 62.4 °F 62.1 °F 30.30 in Calm     99% 0.13 in
07:33 62.4 °F 62.1 °F 30.30 in Calm     99% 0.14 in
07:38 62.4 °F 62.1 °F 30.30 in Calm     99% 0.15 in
07:43 62.4 °F 62.1 °F 30.30 in Calm     99% 0.16 in
07:48 62.4 °F 62.1 °F 30.30 in Calm     99% 0.18 in
07:53 62.4 °F 62.1 °F 30.30 in Calm     99% 0.21 in
07:58 62.6 °F 62.2 °F 30.30 in Calm     99% 0.23 in
08:03 62.4 °F 62.1 °F 30.30 in Calm     99% 0.25 in
08:08 62.4 °F 62.1 °F 30.30 in Calm     99% 0.26 in
08:13 62.4 °F 62.1 °F 30.30 in Calm     99% 0.23 in
08:18 62.4 °F 62.1 °F 30.30 in Calm     99% 0.23 in
08:23 62.4 °F 62.1 °F 30.30 in Calm     99% 0.23 in
08:28 62.4 °F 62.1 °F 30.30 in Calm     99% 0.26 in
08:34 62.4 °F 62.1 °F 30.30 in Calm     99% 0.25 in
08:39 62.4 °F 62.1 °F 30.31 in Calm     99% 0.25 in
08:44 62.4 °F 62.1 °F 30.31 in Calm     99% 0.23 in
08:49 62.4 °F 62.1 °F 30.31 in Calm     99% 0.22 in
08:54 62.6 °F 62.2 °F 30.31 in Calm     99% 0.21 in
08:59 62.4 °F 62.1 °F 30.31 in Calm     99% 0.20 in
09:04 62.6 °F 62.2 °F 30.32 in Calm     99% 0.19 in
09:09 62.6 °F 62.2 °F 30.32 in Calm     99% 0.20 in
09:14 62.8 °F 62.4 °F 30.32 in Calm     99% 0.21 in
09:24 62.8 °F 62.4 °F 30.32 in Calm     99% 0.18 in
09:29 62.8 °F 62.4 °F 30.32 in Calm     99% 0.17 in
09:34 63.0 °F 62.6 °F 30.32 in Calm     99% 0.17 in
09:39 63.0 °F 62.6 °F 30.32 in Calm     99% 0.15 in
09:44 63.1 °F 62.8 °F 30.32 in Calm     99% 0.15 in
09:49 63.1 °F 62.8 °F 30.33 in Calm     99% 0.13 in
09:54 63.1 °F 62.8 °F 30.32 in Calm   1.0 mph 99% 0.11 in
10:09 63.5 °F 63.1 °F 30.32 in Calm     99% 0.09 in
10:19 63.7 °F 63.3 °F 30.32 in Calm     99% 0.07 in
10:29 63.9 °F 63.5 °F 30.32 in Calm     99% 0.06 in
10:39 63.9 °F 63.5 °F 30.32 in Calm     99% 0.06 in
10:44 63.9 °F 63.5 °F 30.32 in Calm     99% 0.07 in
10:49 63.9 °F 63.5 °F 30.32 in Calm     99% 0.08 in
10:54 63.9 °F 63.5 °F 30.32 in Calm     99% 0.08 in
10:59 64.0 °F 63.7 °F 30.32 in Calm     99% 0.09 in
11:04 64.0 °F 63.7 °F 30.32 in Calm     99% 0.09 in
11:09 64.0 °F 63.7 °F 30.32 in Calm     99% 0.08 in
11:19 64.2 °F 63.9 °F 30.32 in Calm     99% 0.08 in
11:24 64.2 °F 63.9 °F 30.32 in Calm     99% 0.09 in
11:34 64.4 °F 63.9 °F 30.32 in Calm     98% 0.10 in
11:39 64.4 °F 63.9 °F 30.32 in Calm     98% 0.11 in
11:44 64.6 °F 64.0 °F 30.32 in Calm     98% 0.09 in
11:49 64.6 °F 64.0 °F 30.33 in Calm     98% 0.09 in
11:59 64.6 °F 63.7 °F 30.33 in Calm     97% 0.09 in
12:09 64.9 °F 64.0 °F 30.32 in Calm     97% 0.09 in
12:19 65.1 °F 64.2 °F 30.32 in Calm   1.0 mph 97% 0.09 in
12:29 65.5 °F 64.6 °F 30.32 in Calm   1.0 mph 97% 0.08 in
12:39 65.5 °F 64.6 °F 30.32 in Calm   1.0 mph 97% 0.09 in
12:44 65.5 °F 64.6 °F 30.32 in Calm   1.0 mph 97% 0.09 in
12:49 65.5 °F 64.2 °F 30.32 in Calm     96% 0.09 in
12:54 65.7 °F 64.8 °F 30.32 in Calm   1.0 mph 97% 0.09 in
13:04 66.0 °F 64.8 °F 30.32 in Calm     96% 0.08 in
13:09 66.0 °F 64.8 °F 30.32 in Calm     96% 0.08 in
13:19 66.6 °F 65.3 °F 30.31 in Calm   1.0 mph 96% 0.08 in
13:24 66.7 °F 65.5 °F 30.31 in Calm   1.0 mph 96% 0.07 in
13:29 66.9 °F 65.5 °F 30.31 in Calm   1.0 mph 95% 0.08 in
13:34 67.3 °F 65.8 °F 30.31 in Calm   2.0 mph 95% 0.06 in
13:39 67.5 °F 66.0 °F 30.31 in West 0.9 mph 1.0 mph 95% 0.05 in
13:44 67.8 °F 66.4 °F 30.30 in Calm     95% 0.05 in
13:49 68.4 °F 66.2 °F 30.30 in WNW 0.9 mph 2.0 mph 93% 0.04 in
13:54 68.7 °F 66.4 °F 30.30 in West 0.9 mph 2.0 mph 92% 0.03 in
13:59 68.7 °F 65.7 °F 30.30 in West 2.0 mph 2.0 mph 90% 0.03 in
14:09 68.9 °F 66.2 °F 30.29 in Calm     91% 0.02 in
14:14 69.1 °F 66.0 °F 30.29 in West 0.9 mph 1.0 mph 90% 0.01 in
14:19 68.7 °F 66.0 °F 30.29 in Calm   1.0 mph 91% 0.01 in
14:24 68.9 °F 66.7 °F 30.29 in Calm   1.0 mph 93% 0.01 in
14:29 68.9 °F 66.6 °F 30.29 in Calm   1.0 mph 92% 0.00 in
14:34 69.1 °F 66.4 °F 30.29 in Calm     91% 0.00 in
14:39 69.3 °F 66.6 °F 30.29 in West 0.9 mph 1.0 mph 91% 0.00 in
14:44 69.3 °F 66.6 °F 30.29 in Calm     91% 0.00 in
14:59 69.1 °F 66.7 °F 30.28 in WNW 0.9 mph 1.0 mph 92% 0.00 in
15:09 69.1 °F 66.7 °F 30.28 in Calm     92% 0.00 in
15:14 69.3 °F 66.9 °F 30.28 in NNW 0.9 mph 1.0 mph 92% 0.00 in
15:19 69.4 °F 66.4 °F 30.27 in Calm   1.0 mph 90% 0.00 in
15:29 70.3 °F 66.2 °F 30.27 in Calm   3.0 mph 87% 0.00 in
15:49 70.9 °F 67.5 °F 30.26 in West 0.9 mph 1.0 mph 89% 0.00 in
16:00 71.1 °F 67.6 °F 30.25 in Calm     89% 0.00 in
16:05 71.2 °F 67.8 °F 30.25 in ESE 0.9 mph 1.0 mph 89% 0.00 in
16:35 72.3 °F 67.8 °F 30.25 in WSW 0.9 mph 1.0 mph 86% 0.00 in
16:40 72.1 °F 67.1 °F 30.25 in Calm     84% 0.00 in
16:45 71.8 °F 67.1 °F 30.25 in Calm   1.0 mph 85% 0.00 in
16:50 71.6 °F 67.8 °F 30.25 in Calm     88% 0.00 in
16:55 71.4 °F 68.4 °F 30.25 in Calm     90% 0.00 in
17:00 71.4 °F 68.7 °F 30.25 in Calm     91% 0.00 in
17:10 71.8 °F 69.1 °F 30.25 in Calm     91% 0.00 in
17:15 71.8 °F 67.1 °F 30.25 in ENE 0.9 mph 2.0 mph 85% 0.00 in
17:25 71.6 °F 67.5 °F 30.25 in West 2.0 mph 2.0 mph 87% 0.00 in
17:45 71.1 °F 67.6 °F 30.26 in Calm     89% 0.00 in
17:50 71.1 °F 68.0 °F 30.26 in Calm     90% 0.00 in
17:55 71.1 °F 67.6 °F 30.26 in Calm   1.0 mph 89% 0.00 in
18:05 70.2 °F 67.5 °F 30.26 in Calm   1.0 mph 91% 0.00 in
18:10 70.0 °F 67.5 °F 30.25 in Calm   1.0 mph 92% 0.00 in
18:15 69.6 °F 67.5 °F 30.25 in Calm     93% 0.00 in
18:21 69.6 °F 67.5 °F 30.25 in Calm     93% 0.00 in
18:26 69.6 °F 67.5 °F 30.25 in Calm     93% 0.00 in
18:31 69.4 °F 67.3 °F 30.25 in Calm     93% 0.00 in
18:41 69.4 °F 67.3 °F 30.25 in Calm     93% 0.00 in
19:01 69.4 °F 68.0 °F 30.25 in Calm     95% 0.00 in
19:11 69.3 °F 67.8 °F 30.25 in Calm     95% 0.00 in
19:16 69.1 °F 67.6 °F 30.25 in Calm     95% 0.00 in
19:21 68.9 °F 67.5 °F 30.25 in Calm   2.0 mph 95% 0.00 in
19:26 68.7 °F 66.6 °F 30.25 in Calm   1.0 mph 93% 0.00 in
19:36 68.5 °F 67.1 °F 30.26 in Calm     95% 0.00 in
19:41 68.4 °F 66.6 °F 30.26 in West 0.9 mph 1.0 mph 94% 0.00 in
19:46 68.2 °F 66.0 °F 30.26 in Calm   1.0 mph 93% 0.00 in
19:51 67.8 °F 65.5 °F 30.26 in Calm     92% 0.00 in
19:56 67.6 °F 65.5 °F 30.27 in Calm     93% 0.00 in
20:01 67.5 °F 65.7 °F 30.27 in Calm     94% 0.00 in
20:12 67.1 °F 65.8 °F 30.27 in Calm     96% 0.00 in
20:17 66.9 °F 65.7 °F 30.26 in Calm     96% 0.00 in
20:22 66.6 °F 65.3 °F 30.27 in Calm     96% 0.00 in
20:27 66.4 °F 65.1 °F 30.27 in Calm     96% 0.00 in
20:32 66.2 °F 64.9 °F 30.26 in Calm   1.0 mph 96% 0.00 in
20:37 66.0 °F 64.8 °F 30.27 in Calm     96% 0.00 in
20:42 65.8 °F 64.6 °F 30.27 in Calm     96% 0.00 in
20:47 65.7 °F 64.8 °F 30.27 in ESE 0.9 mph 1.0 mph 97% 0.00 in
21:02 65.5 °F 64.6 °F 30.28 in Calm     97% 0.00 in
21:07 65.1 °F 64.2 °F 30.28 in Calm     97% 0.00 in
21:17 64.9 °F 64.0 °F 30.28 in Calm     97% 0.00 in
21:32 64.6 °F 64.0 °F 30.28 in Calm     98% 0.00 in
21:37 64.6 °F 64.0 °F 30.28 in Calm     98% 0.00 in
21:57 64.6 °F 64.0 °F 30.29 in Calm     98% 0.00 in
22:08 64.2 °F 63.7 °F 30.29 in Calm   1.0 mph 98% 0.00 in
22:12 64.2 °F 63.7 °F 30.30 in Calm     98% 0.00 in
22:18 64.2 °F 63.7 °F 30.30 in Calm     98% 0.00 in
22:28 64.2 °F 63.7 °F 30.30 in WNW 0.9 mph 1.0 mph 98% 0.00 in
22:38 64.2 °F 63.7 °F 30.30 in Calm   1.0 mph 98% 0.00 in
22:48 64.2 °F 63.7 °F 30.30 in Calm     98% 0.00 in
22:53 64.2 °F 63.7 °F 30.29 in Calm     98% 0.00 in
23:13 63.9 °F 63.3 °F 30.29 in Calm     98% 0.00 in
23:23 63.7 °F 63.3 °F 30.29 in Calm   1.0 mph 99% 0.00 in
23:28 63.7 °F 63.3 °F 30.29 in Calm     99% 0.00 in
23:38 63.7 °F 63.3 °F 30.29 in Calm     99% 0.00 in
23:43 63.3 °F 63.0 °F 30.29 in Calm   1.0 mph 99% 0.00 in
23:48 63.3 °F 63.0 °F 30.29 in Calm   1.0 mph 99% 0.00 in
23:53 63.3 °F 63.0 °F 30.29 in Calm     99% 0.00 in
WheeWeather.com
Compliments of Weather Underground - 2 mb